Time;durP1;ratioP1;P1;durP2;ratioP2;P2;SDS_P1;SDS_P2;PMS_P1;PMS_P2;Temp;Humidity;BMP_temperature;BMP_pressure;BME280_temperature;BME280_humidity;BME280_pressure;Samples;Min_cycle;Max_cycle;Signal;HPM_P1;HPM_P2
2021/08/05 00:02:07;;;;;;;6.03;3.70;;;18.30;95.50;;;;;;5031898;28;20481;-51
2021/08/05 00:04:33;;;;;;;4.67;4.00;;;18.30;95.60;;;;;;5032138;28;20434;-51
2021/08/05 00:07:00;;;;;;;9.73;3.80;;;18.30;95.60;;;;;;5014509;28;20466;-52
2021/08/05 00:09:26;;;;;;;9.03;3.60;;;18.30;95.70;;;;;;5031644;28;20442;-51
2021/08/05 00:11:53;;;;;;;3.60;3.17;;;18.30;95.70;;;;;;5031849;28;20454;-51
2021/08/05 00:14:21;;;;;;;4.87;3.00;;;18.30;95.70;;;;;;5033350;28;20478;-50
2021/08/05 00:16:48;;;;;;;5.10;2.97;;;18.30;95.80;;;;;;5032206;28;20438;-50
2021/08/05 00:19:14;;;;;;;4.47;3.40;;;18.20;95.80;;;;;;5031409;28;20421;-50
2021/08/05 00:21:41;;;;;;;4.00;3.60;;;18.30;95.80;;;;;;5031701;28;20450;-50
2021/08/05 00:24:07;;;;;;;3.67;3.17;;;18.20;95.90;;;;;;5031784;28;20934;-51
2021/08/05 00:26:34;;;;;;;4.30;2.73;;;18.20;95.90;;;;;;5031848;28;20438;-50
2021/08/05 00:29:01;;;;;;;4.13;2.57;;;18.20;96.00;;;;;;5031787;28;20802;-51
2021/08/05 00:31:29;;;;;;;3.73;3.30;;;18.20;96.00;;;;;;5031528;28;20499;-50
2021/08/05 00:33:56;;;;;;;4.13;3.40;;;18.20;96.10;;;;;;5031695;28;20449;-49
2021/08/05 00:36:23;;;;;;;10.43;3.37;;;18.10;96.40;;;;;;5013834;28;21055;-51
2021/08/05 00:38:50;;;;;;;3.80;3.40;;;18.10;96.20;;;;;;5031475;28;20520;-49
2021/08/05 00:41:16;;;;;;;3.30;3.00;;;18.10;96.30;;;;;;5013913;28;20473;-50
2021/08/05 00:43:43;;;;;;;5.13;2.87;;;18.10;96.40;;;;;;5016555;28;20795;-49
2021/08/05 00:46:10;;;;;;;6.73;3.20;;;18.10;96.40;;;;;;5036038;28;20431;-50
2021/08/05 00:48:38;;;;;;;4.80;3.00;;;18.00;96.40;;;;;;5017318;28;20450;-51
2021/08/05 00:51:05;;;;;;;2.77;2.50;;;18.00;96.50;;;;;;5035572;28;20458;-51
2021/08/05 00:53:32;;;;;;;5.17;3.00;;;18.00;96.50;;;;;;5035531;28;20443;-51
2021/08/05 00:55:59;;;;;;;5.20;2.80;;;18.00;96.60;;;;;;5035368;28;20483;-51
2021/08/05 00:58:25;;;;;;;4.30;3.13;;;18.00;96.60;;;;;;5017316;28;20454;-51
2021/08/05 01:00:57;;;;;;;5.37;3.23;;;18.00;96.60;;;;;;5035052;28;20468;-52
2021/08/05 01:03:27;;;;;;;5.93;3.23;;;18.00;96.70;;;;;;5035321;28;20430;-51
2021/08/05 01:06:05;;;;;;;6.00;2.53;;;18.00;96.80;;;;;;5035240;28;20837;-51
2021/08/05 01:08:35;;;;;;;4.07;3.20;;;18.00;96.80;;;;;;5017268;28;20816;-51
2021/08/05 01:11:10;;;;;;;5.10;3.13;;;18.00;96.90;;;;;;5017484;28;20473;-51
2021/08/05 01:13:40;;;;;;;4.03;3.30;;;17.90;96.80;;;;;;5017259;28;20471;-50
2021/08/05 01:16:12;;;;;;;3.90;2.83;;;17.90;96.90;;;;;;5017254;28;20572;-51
2021/08/05 01:18:41;;;;;;;4.03;3.30;;;17.90;97.00;;;;;;5016895;28;20445;-52
2021/08/05 01:21:17;;;;;;;3.53;3.00;;;17.90;97.10;;;;;;5017177;28;20571;-51
2021/08/05 01:23:50;;;;;;;4.57;3.50;;;17.90;97.10;;;;;;5034954;28;20448;-51
2021/08/05 01:26:24;;;;;;;3.90;3.40;;;17.80;97.20;;;;;;5034989;28;20436;-51
2021/08/05 01:28:53;;;;;;;3.30;2.87;;;17.80;97.20;;;;;;5020506;28;20450;-51
2021/08/05 01:31:22;;;;;;;3.37;2.87;;;17.80;97.40;;;;;;5034746;28;20550;-52
2021/08/05 01:33:50;;;;;;;4.23;2.93;;;17.80;97.40;;;;;;5034724;28;20427;-51
2021/08/05 01:36:18;;;;;;;4.67;3.20;;;17.80;97.50;;;;;;5034471;28;20476;-51
2021/08/05 01:38:46;;;;;;;6.10;3.27;;;17.80;97.50;;;;;;5034338;28;20435;-51
2021/08/05 01:41:16;;;;;;;6.10;2.53;;;17.70;97.60;;;;;;5034859;28;20851;-51
2021/08/05 01:43:44;;;;;;;4.03;2.97;;;17.70;97.60;;;;;;5016866;28;20955;-51
2021/08/05 01:46:12;;;;;;;5.80;3.07;;;17.70;97.70;;;;;;5034483;28;20439;-51
2021/08/05 01:48:39;;;;;;;3.30;2.87;;;17.70;97.70;;;;;;5016248;28;20535;-52
2021/08/05 01:51:07;;;;;;;7.07;3.00;;;17.70;97.80;;;;;;5016648;28;20473;-51
2021/08/05 01:53:34;;;;;;;3.23;2.93;;;17.60;97.80;;;;;;5016284;28;20456;-51
2021/08/05 01:56:01;;;;;;;4.97;3.07;;;17.60;97.80;;;;;;5034267;28;20573;-52
2021/08/05 01:58:28;;;;;;;3.67;2.60;;;17.60;97.90;;;;;;5033975;28;20524;-51
2021/08/05 02:00:55;;;;;;;3.60;2.90;;;17.60;97.90;;;;;;5016197;28;20487;-52
2021/08/05 02:03:24;;;;;;;5.60;3.00;;;17.40;97.90;;;;;;5034195;28;20929;-52
2021/08/05 02:06:03;;;;;;;4.10;3.47;;;17.60;98.00;;;;;;5034144;28;20437;-51
2021/08/05 02:08:36;;;;;;;4.60;2.90;;;17.60;98.10;;;;;;5016241;28;20432;-51
2021/08/05 02:11:04;;;;;;;5.80;3.07;;;17.60;98.10;;;;;;5016491;28;20498;-51
2021/08/05 02:13:36;;;;;;;6.57;2.97;;;17.50;98.10;;;;;;5016355;28;20452;-51
2021/08/05 02:16:06;;;;;;;3.27;2.70;;;17.60;98.20;;;;;;5016149;28;21058;-51
2021/08/05 02:18:35;;;;;;;6.60;3.60;;;17.60;98.30;;;;;;5015860;28;20992;-52
2021/08/05 02:21:04;;;;;;;2.77;2.57;;;17.50;98.70;;;;;;5016055;28;20532;-51
2021/08/05 02:23:32;;;;;;;3.40;3.07;;;17.50;98.40;;;;;;5016182;28;20588;-51
2021/08/05 02:26:00;;;;;;;4.30;2.50;;;17.40;98.40;;;;;;5015420;28;20496;-51
2021/08/05 02:28:29;;;;;;;4.70;3.50;;;17.50;98.50;;;;;;5014496;28;20902;-51
2021/08/05 02:30:57;;;;;;;3.93;2.90;;;17.40;98.50;;;;;;5015685;28;21008;-51
2021/08/05 02:33:26;;;;;;;3.17;2.87;;;17.40;98.70;;;;;;5015919;28;20454;-51
2021/08/05 02:35:54;;;;;;;3.50;2.80;;;17.40;98.70;;;;;;5033643;28;20472;-51
2021/08/05 02:38:22;;;;;;;7.77;3.10;;;17.40;98.80;;;;;;5033247;28;20436;-51
2021/08/05 02:40:51;;;;;;;5.17;3.00;;;17.30;98.80;;;;;;5033396;28;20452;-51
2021/08/05 02:43:19;;;;;;;3.90;3.00;;;17.40;98.90;;;;;;5019433;28;20453;-52
2021/08/05 02:45:48;;;;;;;5.27;3.50;;;17.30;99.00;;;;;;5033523;28;20527;-51
2021/08/05 02:48:15;;;;;;;5.30;3.70;;;17.30;99.00;;;;;;5033102;28;20932;-51
2021/08/05 02:50:43;;;;;;;4.13;3.60;;;17.30;99.20;;;;;;5033311;28;20433;-51
2021/08/05 02:53:11;;;;;;;6.17;3.53;;;17.20;99.20;;;;;;5033220;28;20436;-51
2021/08/05 02:55:39;;;;;;;5.00;3.10;;;17.20;99.20;;;;;;5015565;28;21023;-51
2021/08/05 02:58:06;;;;;;;4.17;3.53;;;17.20;99.40;;;;;;5014951;28;20973;-52
2021/08/05 03:00:33;;;;;;;5.80;4.03;;;17.10;99.40;;;;;;5033053;28;20948;-52
2021/08/05 03:03:00;;;;;;;3.40;3.10;;;17.30;99.60;;;;;;5015395;28;20460;-53
2021/08/05 03:05:27;;;;;;;5.03;3.30;;;17.30;99.70;;;;;;5032296;28;20895;-52
2021/08/05 03:07:53;;;;;;;4.77;2.90;;;17.00;99.60;;;;;;5032898;28;20424;-53
2021/08/05 03:10:21;;;;;;;4.97;2.80;;;17.20;99.80;;;;;;5014946;28;20945;-53
2021/08/05 03:12:48;;;;;;;4.33;3.17;;;17.20;99.80;;;;;;5033018;28;20468;-52
2021/08/05 03:15:15;;;;;;;5.10;3.50;;;17.20;99.90;;;;;;5032944;28;20432;-51
2021/08/05 03:17:41;;;;;;;3.80;3.33;;;17.20;99.90;;;;;;5032765;28;20472;-51
2021/08/05 03:20:15;;;;;;;4.13;3.27;;;17.10;99.90;;;;;;5032438;28;20440;-51
2021/08/05 03:22:42;;;;;;;7.57;3.40;;;17.20;99.90;;;;;;5032595;28;20977;-51
2021/08/05 03:25:09;;;;;;;4.43;3.07;;;17.10;99.90;;;;;;5032845;28;20871;-51
2021/08/05 03:27:37;;;;;;;3.83;2.90;;;17.10;99.90;;;;;;5032818;28;20785;-51
2021/08/05 03:30:05;;;;;;;6.00;3.57;;;17.10;99.90;;;;;;5032420;28;20444;-51
2021/08/05 03:32:31;;;;;;;4.37;3.63;;;17.10;99.90;;;;;;5032393;28;20455;-51
2021/08/05 03:34:58;;;;;;;4.53;3.30;;;17.10;99.90;;;;;;5032212;28;20451;-51
2021/08/05 03:37:25;;;;;;;4.00;3.60;;;16.80;99.90;;;;;;5032202;28;20484;-51
2021/08/05 03:39:51;;;;;;;7.67;3.57;;;17.10;99.90;;;;;;5031892;28;20439;-51
2021/08/05 03:42:18;;;;;;;4.57;3.20;;;17.00;99.90;;;;;;5032263;28;20458;-51
2021/08/05 03:44:46;;;;;;;7.53;3.57;;;16.90;99.90;;;;;;5014597;28;20444;-51
2021/08/05 03:47:13;;;;;;;4.47;3.03;;;17.00;99.90;;;;;;5032236;28;20951;-51
2021/08/05 03:49:39;;;;;;;6.23;3.70;;;17.00;99.90;;;;;;5031664;28;20947;-51
2021/08/05 03:52:06;;;;;;;5.03;4.20;;;17.10;99.90;;;;;;5031904;28;20559;-51
2021/08/05 03:54:33;;;;;;;8.00;4.40;;;17.00;99.90;;;;;;5014124;28;20875;-51
2021/08/05 03:56:59;;;;;;;7.37;4.13;;;17.00;99.90;;;;;;5034022;28;20480;-51
2021/08/05 03:59:26;;;;;;;5.50;4.10;;;17.00;99.90;;;;;;5034473;28;20439;-51
2021/08/05 04:01:54;;;;;;;5.70;3.93;;;17.00;99.90;;;;;;5031859;28;20479;-51
2021/08/05 04:04:20;;;;;;;6.70;4.60;;;17.00;99.90;;;;;;5031775;28;20457;-51
2021/08/05 04:06:47;;;;;;;10.03;4.87;;;17.00;99.90;;;;;;5031715;28;20429;-51
2021/08/05 04:09:14;;;;;;;4.10;3.60;;;17.10;99.90;;;;;;5031820;28;20799;-51
2021/08/05 04:11:40;;;;;;;6.80;4.30;;;17.00;99.90;;;;;;5031878;28;20806;-51
2021/08/05 04:14:07;;;;;;;6.70;4.80;;;17.00;99.90;;;;;;5032031;28;20452;-51
2021/08/05 04:16:35;;;;;;;4.93;3.80;;;17.00;99.90;;;;;;5031663;28;20468;-51
2021/08/05 04:19:03;;;;;;;6.50;4.00;;;16.90;99.90;;;;;;5031286;28;20787;-51
2021/08/05 04:21:29;;;;;;;4.70;3.23;;;17.00;99.90;;;;;;5031934;28;20457;-51
2021/08/05 04:23:56;;;;;;;4.43;3.30;;;17.00;99.90;;;;;;5031538;28;20451;-51
2021/08/05 04:26:23;;;;;;;4.67;3.90;;;17.00;99.90;;;;;;5031605;28;20929;-51
2021/08/05 04:28:49;;;;;;;11.53;3.90;;;17.10;99.90;;;;;;5031277;28;20428;-51
2021/08/05 04:31:16;;;;;;;6.90;3.87;;;17.00;99.90;;;;;;5031460;28;20470;-51
2021/08/05 04:33:43;;;;;;;6.00;3.83;;;17.00;99.90;;;;;;5031265;28;20860;-51
2021/08/05 04:36:10;;;;;;;4.07;3.37;;;17.00;99.90;;;;;;5031365;28;20495;-51
2021/08/05 04:38:37;;;;;;;3.80;3.40;;;16.90;99.90;;;;;;5031086;28;20937;-51
2021/08/05 04:41:04;;;;;;;5.33;3.90;;;17.00;99.90;;;;;;5031427;28;20468;-51
2021/08/05 04:43:30;;;;;;;5.30;4.13;;;17.30;99.90;;;;;;5013703;28;20455;-51
2021/08/05 04:45:57;;;;;;;4.50;3.53;;;17.20;99.90;;;;;;5031327;28;20790;-51
2021/08/05 04:48:27;;;;;;;4.23;3.40;;;17.30;99.90;;;;;;5031105;28;20431;-52
2021/08/05 04:50:54;;;;;;;4.47;4.03;;;17.40;99.90;;;;;;5031257;28;20454;-51
2021/08/05 04:53:22;;;;;;;4.50;3.77;;;17.30;99.90;;;;;;5031260;28;20432;-51
2021/08/05 04:55:49;;;;;;;4.10;3.70;;;17.60;99.90;;;;;;5032586;28;20523;-51
2021/08/05 04:58:15;;;;;;;10.30;3.80;;;17.60;99.90;;;;;;5030883;28;20449;-51
2021/08/05 05:00:43;;;;;;;6.23;3.47;;;17.60;99.90;;;;;;5031045;28;20442;-51
2021/08/05 05:03:11;;;;;;;5.23;3.23;;;17.70;99.90;;;;;;5031757;28;20807;-50
2021/08/05 05:05:38;;;;;;;8.77;4.30;;;17.70;99.90;;;;;;5031077;28;20933;-50
2021/08/05 05:08:16;;;;;;;6.57;4.20;;;17.90;99.90;;;;;;5031016;28;20431;-51
2021/08/05 05:10:44;;;;;;;5.13;4.30;;;18.00;99.90;;;;;;5031665;28;20436;-50
2021/08/05 05:13:11;;;;;;;4.73;3.83;;;18.10;99.90;;;;;;5031982;28;20977;-50
2021/08/05 05:15:38;;;;;;;4.20;3.70;;;18.10;99.70;;;;;;5031245;28;20450;-52
2021/08/05 05:18:05;;;;;;;5.70;4.23;;;18.30;99.70;;;;;;5030738;28;20462;-54
2021/08/05 05:20:32;;;;;;;5.33;4.70;;;18.40;99.50;;;;;;5030980;28;20815;-51
2021/08/05 05:22:59;;;;;;;12.03;4.40;;;18.40;99.20;;;;;;5030891;28;20957;-51
2021/08/05 05:25:26;;;;;;;4.83;4.23;;;18.50;99.10;;;;;;5031002;28;20450;-50
2021/08/05 05:27:54;;;;;;;10.13;4.60;;;18.70;99.00;;;;;;5030791;28;20536;-49
2021/08/05 05:30:21;;;;;;;6.17;4.60;;;18.70;98.90;;;;;;5034233;28;20880;-49
2021/08/05 05:32:48;;;;;;;5.17;3.87;;;18.80;98.80;;;;;;5034394;28;20454;-50
2021/08/05 05:35:17;;;;;;;7.63;4.63;;;18.90;98.70;;;;;;5034513;28;21046;-53
2021/08/05 05:37:45;;;;;;;6.00;4.00;;;19.00;98.60;;;;;;5035010;28;20475;-51
2021/08/05 05:40:13;;;;;;;5.50;4.13;;;19.00;98.50;;;;;;5034061;28;20434;-51
2021/08/05 05:42:40;;;;;;;6.23;4.37;;;19.10;98.50;;;;;;5033978;28;20968;-53
2021/08/05 05:45:10;;;;;;;6.57;4.90;;;19.00;98.30;;;;;;5034257;28;20435;-52
2021/08/05 05:47:37;;;;;;;6.30;4.83;;;19.30;98.30;;;;;;5034263;28;20769;-52
2021/08/05 05:50:05;;;;;;;5.30;4.50;;;19.30;98.20;;;;;;5034019;28;20442;-52
2021/08/05 05:52:32;;;;;;;4.73;4.20;;;19.40;98.20;;;;;;5033655;28;20463;-53
2021/08/05 05:54:58;;;;;;;6.00;4.33;;;19.50;98.20;;;;;;5034303;28;20442;-53
2021/08/05 05:57:25;;;;;;;6.83;5.23;;;19.40;98.00;;;;;;5034064;28;20492;-52
2021/08/05 05:59:52;;;;;;;5.80;5.30;;;19.60;98.00;;;;;;5033737;28;20454;-51
2021/08/05 06:02:20;;;;;;;7.40;4.83;;;19.70;97.90;;;;;;5033630;28;20475;-52
2021/08/05 06:04:46;;;;;;;6.30;5.60;;;19.70;97.80;;;;;;5033720;28;20430;-52
2021/08/05 06:07:13;;;;;;;9.80;6.50;;;19.70;97.70;;;;;;5032961;28;20798;-51
2021/08/05 06:09:40;;;;;;;8.13;5.87;;;19.80;97.70;;;;;;5033096;28;20443;-51
2021/08/05 06:12:07;;;;;;;8.53;5.30;;;19.80;97.60;;;;;;5033022;28;20938;-51
2021/08/05 06:14:34;;;;;;;6.23;5.10;;;19.90;97.70;;;;;;5033315;28;20431;-50
2021/08/05 06:17:00;;;;;;;6.10;5.20;;;20.00;97.60;;;;;;5033272;28;20857;-49
2021/08/05 06:19:28;;;;;;;7.50;5.40;;;20.10;97.50;;;;;;5032833;28;20443;-50
2021/08/05 06:21:55;;;;;;;6.93;5.57;;;20.10;97.50;;;;;;5033319;28;20447;-50
2021/08/05 06:24:22;;;;;;;7.20;5.50;;;20.10;97.50;;;;;;5033369;28;20530;-50
2021/08/05 06:26:51;;;;;;;6.97;5.60;;;20.20;97.50;;;;;;5033973;28;20435;-50
2021/08/05 06:29:18;;;;;;;8.70;6.43;;;20.20;97.50;;;;;;5034925;28;20439;-51
2021/08/05 06:31:45;;;;;;;7.73;6.50;;;20.20;97.40;;;;;;5032746;28;20860;-50
2021/08/05 06:34:11;;;;;;;7.97;5.73;;;20.30;97.50;;;;;;5033132;28;20434;-50
2021/08/05 06:36:39;;;;;;;8.73;6.10;;;20.30;97.50;;;;;;5032779;28;20483;-51
2021/08/05 06:39:06;;;;;;;6.37;5.43;;;20.30;97.50;;;;;;5032262;28;20431;-51
2021/08/05 06:41:33;;;;;;;7.50;5.77;;;20.30;97.50;;;;;;5030710;28;20662;-50
2021/08/05 06:43:59;;;;;;;8.17;5.00;;;20.40;97.60;;;;;;5032238;28;20428;-51
2021/08/05 06:46:27;;;;;;;10.30;5.30;;;20.50;97.60;;;;;;5032870;28;20480;-50
2021/08/05 06:48:54;;;;;;;8.97;5.67;;;20.50;97.50;;;;;;5032557;28;20780;-52
2021/08/05 06:51:20;;;;;;;7.87;5.80;;;20.60;97.50;;;;;;5032542;28;20471;-51
2021/08/05 06:53:48;;;;;;;11.27;6.23;;;20.60;97.50;;;;;;5032870;28;20516;-51
2021/08/05 06:56:15;;;;;;;9.40;5.90;;;20.60;97.40;;;;;;5032514;28;20433;-50
2021/08/05 06:58:41;;;;;;;7.40;5.33;;;20.60;97.30;;;;;;5032354;28;20434;-52
2021/08/05 07:01:08;;;;;;;12.23;5.77;;;20.70;97.30;;;;;;5032226;28;20828;-51
2021/08/05 07:03:35;;;;;;;11.00;5.10;;;20.80;97.30;;;;;;5032403;28;20950;-51
2021/08/05 07:06:01;;;;;;;11.43;7.90;;;20.90;97.40;;;;;;5032706;28;20448;-51
2021/08/05 07:08:28;;;;;;;10.00;5.80;;;21.00;97.20;;;;;;5032280;28;20449;-51
2021/08/05 07:10:56;;;;;;;13.10;7.33;;;21.10;97.10;;;;;;5032592;28;20465;-51
2021/08/05 07:13:23;;;;;;;12.33;6.20;;;21.20;96.90;;;;;;5032378;28;20447;-52
2021/08/05 07:15:49;;;;;;;13.03;5.43;;;21.20;96.90;;;;;;5032267;28;20457;-52
2021/08/05 07:18:16;;;;;;;8.50;5.53;;;21.20;96.70;;;;;;5031892;28;20482;-51
2021/08/05 07:20:43;;;;;;;9.80;5.07;;;21.30;96.70;;;;;;5032260;28;20453;-51
2021/08/05 07:23:09;;;;;;;10.70;5.30;;;21.30;96.60;;;;;;5032102;28;20534;-51
2021/08/05 07:25:36;;;;;;;8.77;5.70;;;21.40;96.60;;;;;;5032613;28;20524;-52
2021/08/05 07:28:04;;;;;;;6.83;4.90;;;21.50;96.50;;;;;;5031703;28;20454;-51
2021/08/05 07:30:32;;;;;;;13.33;6.10;;;21.70;96.40;;;;;;5031643;28;20441;-51
2021/08/05 07:32:59;;;;;;;10.37;5.63;;;21.70;96.30;;;;;;5031596;28;20446;-52
2021/08/05 07:35:25;;;;;;;6.93;5.33;;;21.60;96.10;;;;;;5031594;28;20442;-51
2021/08/05 07:37:52;;;;;;;12.50;5.70;;;21.90;96.20;;;;;;5031832;28;21077;-51
2021/08/05 07:40:19;;;;;;;11.70;6.10;;;22.00;96.10;;;;;;5031765;28;20446;-53
2021/08/05 07:42:46;;;;;;;5.53;5.03;;;22.00;95.90;;;;;;5032027;28;20468;-52
2021/08/05 07:45:14;;;;;;;10.73;5.37;;;22.00;95.80;;;;;;5032453;28;20452;-52
2021/08/05 07:47:41;;;;;;;7.70;5.80;;;22.00;95.90;;;;;;5031864;28;20518;-51
2021/08/05 07:50:09;;;;;;;8.67;5.97;;;22.10;95.70;;;;;;5031503;28;20438;-50
2021/08/05 07:52:36;;;;;;;6.73;5.93;;;22.10;95.50;;;;;;5031251;28;20470;-50
2021/08/05 07:55:05;;;;;;;13.40;5.83;;;22.10;95.50;;;;;;5031683;28;20955;-51
2021/08/05 07:57:32;;;;;;;6.27;4.83;;;22.10;95.60;;;;;;5031143;28;20475;-51
2021/08/05 07:59:59;;;;;;;7.60;5.83;;;22.20;95.50;;;;;;5031118;28;20431;-51
2021/08/05 08:02:28;;;;;;;14.07;6.07;;;22.10;95.60;;;;;;5031362;28;20467;-50
2021/08/05 08:04:54;;;;;;;6.70;5.37;;;22.10;95.50;;;;;;5031350;28;20445;-51
2021/08/05 08:07:21;;;;;;;8.00;5.67;;;22.10;95.50;;;;;;5031371;28;20435;-50
2021/08/05 08:09:48;;;;;;;10.83;5.73;;;22.10;95.50;;;;;;5030994;28;20504;-50
2021/08/05 08:12:15;;;;;;;7.70;6.60;;;22.20;95.50;;;;;;5031114;28;21016;-50
2021/08/05 08:14:41;;;;;;;8.57;6.43;;;22.10;95.40;;;;;;5031280;28;20529;-51
2021/08/05 08:17:08;;;;;;;10.73;6.30;;;22.10;95.30;;;;;;5030749;28;20813;-51
2021/08/05 08:19:38;;;;;;;9.77;6.57;;;22.20;95.30;;;;;;5030794;28;20444;-52
2021/08/05 08:22:06;;;;;;;13.33;7.30;;;22.20;95.20;;;;;;5030831;28;21005;-50
2021/08/05 08:24:33;;;;;;;6.40;5.80;;;22.20;95.30;;;;;;5030972;28;20458;-50
2021/08/05 08:26:59;;;;;;;11.53;6.30;;;22.30;95.20;;;;;;5031090;28;20431;-51
2021/08/05 08:29:26;;;;;;;8.20;6.23;;;22.40;95.10;;;;;;5031219;28;20436;-50
2021/08/05 08:31:53;;;;;;;8.30;5.77;;;22.50;95.00;;;;;;5030953;28;20463;-50
2021/08/05 08:34:19;;;;;;;8.17;5.23;;;22.50;94.60;;;;;;5031107;28;20457;-51
2021/08/05 08:36:48;;;;;;;5.90;5.23;;;22.60;94.70;;;;;;5013206;28;20487;-51
2021/08/05 08:39:15;;;;;;;9.23;5.93;;;22.70;94.70;;;;;;5030577;28;20456;-51
2021/08/05 08:41:42;;;;;;;8.23;5.40;;;22.80;94.70;;;;;;5030933;28;20518;-51
2021/08/05 08:44:09;;;;;;;6.83;4.90;;;22.80;94.40;;;;;;5030668;28;20487;-51
2021/08/05 08:46:37;;;;;;;7.20;5.20;;;22.90;94.00;;;;;;5030661;28;20959;-51
2021/08/05 08:49:05;;;;;;;7.00;5.63;;;23.00;94.10;;;;;;5030292;28;20454;-52
2021/08/05 08:51:33;;;;;;;10.27;5.40;;;22.90;93.90;;;;;;5031199;28;20994;-52
2021/08/05 08:54:06;;;;;;;5.73;5.00;;;23.00;93.60;;;;;;5031182;28;20446;-51
2021/08/05 08:56:34;;;;;;;5.97;5.10;;;23.10;93.50;;;;;;5032765;28;20432;-51
2021/08/05 08:59:01;;;;;;;12.90;5.60;;;23.10;93.20;;;;;;5031456;28;20987;-51
2021/08/05 09:01:28;;;;;;;8.67;5.43;;;23.10;93.30;;;;;;5030736;28;20973;-51
2021/08/05 09:03:54;;;;;;;9.63;5.17;;;23.30;93.20;;;;;;5032656;28;20451;-51
2021/08/05 09:06:21;;;;;;;6.80;4.80;;;23.30;92.90;;;;;;5035001;28;20957;-50
2021/08/05 09:08:49;;;;;;;7.20;5.40;;;23.30;93.00;;;;;;5034516;28;20437;-50
2021/08/05 09:11:18;;;;;;;6.30;5.70;;;23.30;92.90;;;;;;5034588;28;20454;-51
2021/08/05 09:13:44;;;;;;;6.70;6.10;;;23.20;92.70;;;;;;5034675;28;20444;-52
2021/08/05 09:16:22;;;;;;;5.63;4.83;;;23.20;92.80;;;;;;5034622;28;20443;-52
2021/08/05 09:18:49;;;;;;;10.30;4.93;;;23.20;92.80;;;;;;5034193;28;20468;-51
2021/08/05 09:21:17;;;;;;;7.00;5.00;;;23.20;92.90;;;;;;5034327;28;20991;-50
2021/08/05 09:23:49;;;;;;;5.97;5.47;;;23.20;92.80;;;;;;5034320;28;20434;-51
2021/08/05 09:26:29;;;;;;;4.83;4.33;;;23.20;92.50;;;;;;5016564;28;21052;-52
2021/08/05 09:29:18;;;;;;;7.83;5.27;;;23.40;92.50;;;;;;5033892;28;20442;-51
2021/08/05 09:31:47;;;;;;;5.37;4.87;;;23.40;91.90;;;;;;5028137;28;20478;-53
2021/08/05 09:34:16;;;;;;;7.77;5.40;;;23.50;92.20;;;;;;5034022;28;20437;-51
2021/08/05 09:36:44;;;;;;;5.70;4.30;;;23.50;92.00;;;;;;5034065;28;20505;-51
2021/08/05 09:39:20;;;;;;;6.07;4.27;;;23.50;92.20;;;;;;5033571;28;20485;-52
2021/08/05 09:41:59;;;;;;;5.60;4.97;;;23.60;91.80;;;;;;5033920;28;20468;-50
2021/08/05 09:44:27;;;;;;;4.50;4.10;;;23.60;90.90;;;;;;5034051;28;20436;-50
2021/08/05 09:47:05;;;;;;;4.03;3.63;;;23.60;90.80;;;;;;5033944;28;20808;-50
2021/08/05 09:49:34;;;;;;;5.13;4.00;;;23.70;90.00;;;;;;5033692;28;20530;-51
2021/08/05 09:52:01;;;;;;;8.00;4.70;;;23.80;90.00;;;;;;5033393;28;20468;-50
2021/08/05 09:54:38;;;;;;;4.93;4.23;;;23.80;89.60;;;;;;5033643;28;20447;-51
2021/08/05 09:57:07;;;;;;;4.47;4.03;;;23.90;89.40;;;;;;5033374;28;20460;-50
2021/08/05 09:59:34;;;;;;;5.43;3.57;;;23.90;89.30;;;;;;5033438;28;20949;-51
2021/08/05 10:02:05;;;;;;;5.17;3.87;;;24.10;88.80;;;;;;5033480;28;21010;-49
2021/08/05 10:04:32;;;;;;;4.53;3.37;;;24.20;88.70;;;;;;5033622;28;20824;-51
2021/08/05 10:07:05;;;;;;;4.20;3.80;;;24.40;89.00;;;;;;5033276;28;20796;-51
2021/08/05 10:09:33;;;;;;;4.57;3.90;;;24.40;87.50;;;;;;5034255;28;20442;-52
2021/08/05 10:12:12;;;;;;;5.03;3.20;;;24.30;86.80;;;;;;5034743;28;20493;-53
2021/08/05 10:14:39;;;;;;;7.10;4.60;;;24.40;86.90;;;;;;5033218;28;20439;-51
2021/08/05 10:17:07;;;;;;;4.50;3.57;;;24.40;86.00;;;;;;5033445;28;20530;-53
2021/08/05 10:19:38;;;;;;;4.50;3.70;;;24.50;86.00;;;;;;5032433;28;20486;-53
2021/08/05 10:22:05;;;;;;;6.00;3.33;;;24.50;85.40;;;;;;5032972;28;20978;-51
2021/08/05 10:24:34;;;;;;;3.80;3.50;;;24.60;85.80;;;;;;5033003;28;20439;-52
2021/08/05 10:27:01;;;;;;;7.20;3.40;;;24.70;84.60;;;;;;5033174;28;20881;-50
2021/08/05 10:29:29;;;;;;;3.50;3.20;;;24.70;84.80;;;;;;5032773;28;20449;-51
2021/08/05 10:31:56;;;;;;;4.27;3.83;;;24.70;83.60;;;;;;5033289;28;20452;-52
2021/08/05 10:34:24;;;;;;;6.13;3.20;;;24.70;83.10;;;;;;5033306;28;20454;-51
2021/08/05 10:36:51;;;;;;;3.53;3.23;;;24.90;82.80;;;;;;5033413;28;20467;-51
2021/08/05 10:39:18;;;;;;;5.07;3.33;;;25.10;82.90;;;;;;5032924;28;20480;-52
2021/08/05 10:41:45;;;;;;;3.80;3.27;;;25.20;82.10;;;;;;5032617;28;20463;-51
2021/08/05 10:44:15;;;;;;;3.13;2.70;;;25.20;80.50;;;;;;5032852;28;20739;-50
2021/08/05 10:46:43;;;;;;;4.43;2.90;;;25.10;79.30;;;;;;5014967;28;20477;-50
2021/08/05 10:49:10;;;;;;;9.73;3.40;;;25.10;78.80;;;;;;5032634;28;20795;-51
2021/08/05 10:51:41;;;;;;;5.20;3.07;;;25.30;79.20;;;;;;5032949;28;20821;-50
2021/08/05 10:54:08;;;;;;;3.43;2.90;;;25.20;78.90;;;;;;5032756;28;20444;-51
2021/08/05 10:56:35;;;;;;;3.53;2.90;;;25.10;78.60;;;;;;5032836;28;20438;-52
2021/08/05 10:59:10;;;;;;;5.70;3.17;;;25.10;78.40;;;;;;5032491;28;21008;-50
2021/08/05 11:01:50;;;;;;;4.57;2.93;;;25.20;78.40;;;;;;5055935;22;20595;-54
2021/08/05 11:04:41;;;;;;;4.90;3.10;;;25.10;77.80;;;;;;5071110;28;20430;-56
2021/08/05 11:07:24;;;;;;;3.90;3.10;;;25.30;77.10;;;;;;5070806;28;20441;-55
2021/08/05 11:09:51;;;;;;;3.60;3.30;;;25.30;77.70;;;;;;5070817;28;20470;-55
2021/08/05 11:12:41;;;;;;;4.27;3.37;;;25.30;77.40;;;;;;5070941;28;20507;-55
2021/08/05 11:15:41;;;;;;;4.47;3.30;;;25.40;76.40;;;;;;5070996;28;20504;-55
2021/08/05 11:18:23;;;;;;;3.63;3.00;;;25.50;75.60;;;;;;5070339;28;20476;-55
2021/08/05 11:21:26;;;;;;;3.30;2.87;;;25.70;75.00;;;;;;5070852;28;20493;-56
2021/08/05 11:23:53;;;;;;;5.67;4.13;;;25.80;73.90;;;;;;5070870;28;20495;-55
2021/08/05 11:26:21;;;;;;;3.20;2.63;;;25.90;74.40;;;;;;5070700;28;20446;-56
2021/08/05 11:28:49;;;;;;;4.40;3.27;;;26.00;73.00;;;;;;5070691;28;20445;-55
2021/08/05 11:31:38;;;;;;;3.50;3.00;;;26.10;72.60;;;;;;5071121;28;20470;-55
2021/08/05 11:34:13;;;;;;;3.50;3.20;;;26.20;71.60;;;;;;5071229;28;20807;-55
2021/08/05 11:36:48;;;;;;;3.53;2.87;;;26.20;71.90;;;;;;5070559;28;20433;-56
2021/08/05 11:39:22;;;;;;;6.53;3.10;;;26.20;71.80;;;;;;5070590;28;20484;-56
2021/08/05 11:41:52;;;;;;;3.70;3.17;;;26.20;71.50;;;;;;5070268;28;20448;-56
2021/08/05 11:44:25;;;;;;;3.60;2.97;;;26.10;71.70;;;;;;5070929;28;20839;-56
2021/08/05 11:47:19;;;;;;;2.77;2.23;;;26.00;71.00;;;;;;5071195;28;20440;-55
2021/08/05 11:49:49;;;;;;;6.37;3.40;;;25.90;70.20;;;;;;5070297;28;20473;-55
2021/08/05 11:52:18;;;;;;;3.70;3.00;;;25.90;71.40;;;;;;5070409;28;20460;-55
2021/08/05 11:54:48;;;;;;;3.33;2.47;;;25.90;71.90;;;;;;5070499;28;20941;-55
2021/08/05 11:57:17;;;;;;;3.10;2.80;;;25.80;71.80;;;;;;5070698;28;20981;-56
2021/08/05 11:59:46;;;;;;;7.00;2.77;;;25.90;71.70;;;;;;5070049;28;20485;-56
2021/08/05 12:02:14;;;;;;;3.53;2.80;;;25.90;71.50;;;;;;5070573;28;20469;-55
2021/08/05 12:04:41;;;;;;;5.13;3.20;;;26.00;71.80;;;;;;5070660;28;20440;-55
2021/08/05 12:07:27;;;;;;;3.70;2.93;;;26.00;71.90;;;;;;5070674;28;20437;-55
2021/08/05 12:10:00;;;;;;;3.23;2.93;;;26.10;71.20;;;;;;5070502;28;20907;-56
2021/08/05 12:12:29;;;;;;;3.10;2.80;;;26.20;71.00;;;;;;5070263;28;20923;-56
2021/08/05 12:14:58;;;;;;;4.00;2.83;;;26.20;70.50;;;;;;5070570;28;20440;-55
2021/08/05 12:17:36;;;;;;;7.13;3.10;;;26.30;70.60;;;;;;5070348;28;20454;-55
2021/08/05 12:20:06;;;;;;;4.47;2.60;;;26.20;70.30;;;;;;5070644;28;20506;-56
2021/08/05 12:22:36;;;;;;;5.30;3.33;;;26.30;70.70;;;;;;5070454;28;20510;-55
2021/08/05 12:25:07;;;;;;;2.87;2.27;;;26.20;70.80;;;;;;5070305;28;20465;-54
2021/08/05 12:27:34;;;;;;;3.50;3.20;;;26.30;70.70;;;;;;5070429;28;20436;-56
2021/08/05 12:30:06;;;;;;;3.27;2.90;;;26.20;70.00;;;;;;5070075;28;20441;-55
2021/08/05 12:32:35;;;;;;;8.10;2.90;;;26.20;69.40;;;;;;5070245;28;20872;-55
2021/08/05 12:35:01;;;;;;;4.13;3.43;;;26.20;69.10;;;;;;5070305;28;20440;-56
2021/08/05 12:37:28;;;;;;;5.93;3.13;;;26.00;69.50;;;;;;5070674;28;20426;-55
2021/08/05 12:40:08;;;;;;;8.13;3.00;;;26.00;69.40;;;;;;5074200;28;20477;-54
2021/08/05 12:42:37;;;;;;;4.43;3.17;;;26.20;69.10;;;;;;5074064;28;20552;-55
2021/08/05 12:45:04;;;;;;;9.00;2.80;;;26.30;69.00;;;;;;5074264;28;20811;-55
2021/08/05 12:47:31;;;;;;;2.67;2.47;;;26.30;68.70;;;;;;5074545;28;20457;-54
2021/08/05 12:49:58;;;;;;;5.70;2.83;;;26.30;68.10;;;;;;5073783;28;20437;-55
2021/08/05 12:52:38;;;;;;;3.13;2.83;;;26.30;68.60;;;;;;5056198;28;20906;-55
2021/08/05 12:55:07;;;;;;;4.70;3.03;;;26.20;67.50;;;;;;5074149;28;20512;-56